createdAt,value
2018-06-23T00:00:17.736Z,15.50
2018-06-23T00:00:52.987Z,15.50
2018-06-23T00:01:27.228Z,15.50
2018-06-23T00:02:00.792Z,15.50
2018-06-23T00:02:34.376Z,15.50
2018-06-23T00:03:09.632Z,15.50
2018-06-23T00:03:43.151Z,15.40
2018-06-23T00:04:16.734Z,15.40
2018-06-23T00:04:50.247Z,15.40
2018-06-23T00:05:24.159Z,15.40
2018-06-23T00:05:57.777Z,15.40
2018-06-23T00:06:32.250Z,15.40
2018-06-23T00:07:06.533Z,15.40
2018-06-23T00:07:40.102Z,15.40
2018-06-23T00:08:15.092Z,15.40
2018-06-23T00:08:48.633Z,15.40
2018-06-23T00:09:22.171Z,15.40
2018-06-23T00:09:56.644Z,15.40
2018-06-23T00:10:30.238Z,15.40
2018-06-23T00:11:03.811Z,15.40
2018-06-23T00:11:37.404Z,15.40
2018-06-23T00:12:10.996Z,15.40
2018-06-23T00:12:44.596Z,15.40
2018-06-23T00:13:18.155Z,15.40
2018-06-23T00:13:51.689Z,15.40
2018-06-23T00:14:25.242Z,15.40
2018-06-23T00:14:59.603Z,15.40
2018-06-23T00:15:33.126Z,15.40
2018-06-23T00:16:39.999Z,15.30
2018-06-23T00:17:14.208Z,15.30
2018-06-23T00:17:47.773Z,15.30
2018-06-23T00:18:21.370Z,15.30
2018-06-23T00:18:54.942Z,15.30
2018-06-23T00:19:28.518Z,15.30
2018-06-23T00:20:02.159Z,15.30
2018-06-23T00:20:35.788Z,15.30
2018-06-23T00:21:09.395Z,15.30
2018-06-23T00:21:43.866Z,15.30
2018-06-23T00:22:17.463Z,15.30
2018-06-23T00:22:51.582Z,15.30
2018-06-23T00:23:25.756Z,15.40
2018-06-23T00:23:59.580Z,15.30
2018-06-23T00:24:33.960Z,15.30
2018-06-23T00:25:07.576Z,15.30
2018-06-23T00:25:46.379Z,15.30
2018-06-23T00:26:25.261Z,15.30
2018-06-23T00:27:00.121Z,15.30
2018-06-23T00:27:33.733Z,15.30
2018-06-23T00:28:07.311Z,15.30
2018-06-23T00:28:40.848Z,15.30
2018-06-23T00:29:14.425Z,15.30
2018-06-23T00:29:47.947Z,15.30
2018-06-23T00:30:22.345Z,15.30
2018-06-23T00:30:55.939Z,15.20
2018-06-23T00:31:29.547Z,15.20
2018-06-23T00:32:03.208Z,15.20
2018-06-23T00:32:36.876Z,15.20
2018-06-23T00:33:10.483Z,15.20
2018-06-23T00:33:44.075Z,15.20
2018-06-23T00:34:17.655Z,15.20
2018-06-23T00:34:52.069Z,15.20
2018-06-23T00:35:25.712Z,15.20
2018-06-23T00:35:59.977Z,15.10
2018-06-23T00:36:33.552Z,15.20
2018-06-23T00:37:07.120Z,15.20
2018-06-23T00:37:40.775Z,15.20
2018-06-23T00:38:14.615Z,15.20
2018-06-23T00:38:48.425Z,15.20
2018-06-23T00:39:21.971Z,15.20
2018-06-23T00:39:56.165Z,15.20
2018-06-23T00:40:29.871Z,15.10
2018-06-23T00:41:04.400Z,15.20
2018-06-23T00:41:38.051Z,15.10
2018-06-23T00:42:11.622Z,15.10
2018-06-23T00:42:45.555Z,15.10
2018-06-23T00:43:19.136Z,15.10
2018-06-23T00:43:52.732Z,15.10
2018-06-23T00:44:26.292Z,15.10
2018-06-23T00:44:59.878Z,15.10
2018-06-23T00:45:33.495Z,15.10
2018-06-23T00:46:07.057Z,15.10
2018-06-23T00:46:40.638Z,15.10
2018-06-23T00:47:47.495Z,15.10
2018-06-23T00:48:21.051Z,15.10
2018-06-23T00:48:55.883Z,15.10
2018-06-23T00:49:29.469Z,15.10
2018-06-23T00:50:03.147Z,15.10
2018-06-23T00:50:37.344Z,15.10
2018-06-23T00:51:11.616Z,15.10
2018-06-23T00:51:45.351Z,15.10
2018-06-23T00:52:19.568Z,15.10
2018-06-23T00:52:53.135Z,15.10
2018-06-23T00:53:26.678Z,15.10
2018-06-23T00:54:00.895Z,15.10
2018-06-23T00:54:34.450Z,15.10
2018-06-23T00:55:08.396Z,15.10
2018-06-23T00:55:41.949Z,15.10
2018-06-23T00:56:16.109Z,15.10
2018-06-23T00:56:50.589Z,15.10
2018-06-23T00:57:25.743Z,15.10
2018-06-23T00:57:59.336Z,15.10
2018-06-23T00:58:43.934Z,15.10
2018-06-23T00:59:28.756Z,15.10
2018-06-23T01:00:02.437Z,15.10
2018-06-23T01:00:36.762Z,15.10
2018-06-23T01:01:10.357Z,15.10
2018-06-23T01:01:43.976Z,15.10
2018-06-23T01:02:18.269Z,15.00
2018-06-23T01:02:51.835Z,15.00
2018-06-23T01:03:25.424Z,15.00
2018-06-23T01:03:59.599Z,15.00
2018-06-23T01:04:33.327Z,15.00
2018-06-23T01:05:07.000Z,15.00
2018-06-23T01:05:40.683Z,15.00
2018-06-23T01:06:15.409Z,15.00
2018-06-23T01:06:48.983Z,15.00
2018-06-23T01:07:22.572Z,15.00
2018-06-23T01:07:56.127Z,15.00
2018-06-23T01:08:29.724Z,15.00
2018-06-23T01:09:04.234Z,15.00
2018-06-23T01:09:38.453Z,15.00
2018-06-23T01:10:12.050Z,15.00
2018-06-23T01:10:45.583Z,15.00
2018-06-23T01:11:20.634Z,15.00
2018-06-23T01:11:54.247Z,15.00
2018-06-23T01:12:27.856Z,15.00
2018-06-23T01:13:01.490Z,15.00
2018-06-23T01:13:36.452Z,15.00
2018-06-23T01:14:10.066Z,15.00
2018-06-23T01:14:43.710Z,15.00
2018-06-23T01:15:17.265Z,15.00
2018-06-23T01:15:50.844Z,15.00
2018-06-23T01:16:24.948Z,15.00
2018-06-23T01:16:59.253Z,15.00
2018-06-23T01:17:32.841Z,15.00
2018-06-23T01:18:07.407Z,15.00
2018-06-23T01:18:43.082Z,15.00
2018-06-23T01:19:16.701Z,15.00
2018-06-23T01:19:50.293Z,15.00
2018-06-23T01:20:23.830Z,14.90
2018-06-23T01:20:57.418Z,14.90
2018-06-23T01:21:30.992Z,14.90
2018-06-23T01:22:05.428Z,14.90
2018-06-23T01:22:39.143Z,14.90
2018-06-23T01:23:12.763Z,14.90
2018-06-23T01:23:46.278Z,14.90
2018-06-23T01:24:19.830Z,14.90
2018-06-23T01:24:54.168Z,14.80
2018-06-23T01:25:27.760Z,14.80
2018-06-23T01:26:01.376Z,14.80
2018-06-23T01:26:34.947Z,14.80
2018-06-23T01:27:08.451Z,14.80
2018-06-23T01:27:42.000Z,14.80
2018-06-23T01:28:15.589Z,14.80
2018-06-23T01:28:49.176Z,14.80
2018-06-23T01:29:22.702Z,14.80
2018-06-23T01:30:29.554Z,14.80
2018-06-23T01:31:03.132Z,14.80
2018-06-23T01:31:36.678Z,14.80
2018-06-23T01:32:10.285Z,14.80
2018-06-23T01:32:44.594Z,14.90
2018-06-23T01:33:19.552Z,14.80
2018-06-23T01:33:54.516Z,14.80
2018-06-23T01:34:28.163Z,14.80
2018-06-23T01:35:01.788Z,14.80
2018-06-23T01:35:35.872Z,14.80
2018-06-23T01:36:09.447Z,14.80
2018-06-23T01:37:16.331Z,14.80
2018-06-23T01:37:50.261Z,14.80
2018-06-23T01:38:23.854Z,14.80
2018-06-23T01:38:58.187Z,14.80
2018-06-23T01:39:31.858Z,14.80
2018-06-23T01:40:06.196Z,14.80
2018-06-23T01:40:39.785Z,14.80
2018-06-23T01:41:13.532Z,14.80
2018-06-23T01:41:47.103Z,14.80
2018-06-23T01:42:20.718Z,14.80
2018-06-23T01:42:54.357Z,14.70
2018-06-23T01:43:27.940Z,14.70
2018-06-23T01:44:01.515Z,14.70
2018-06-23T01:44:35.084Z,14.70
2018-06-23T01:45:09.659Z,14.70
2018-06-23T01:45:44.184Z,14.70
2018-06-23T01:46:18.956Z,14.70
2018-06-23T01:46:52.568Z,14.70
2018-06-23T01:47:26.663Z,14.70
2018-06-23T01:48:00.301Z,14.70
2018-06-23T01:48:33.843Z,14.70
2018-06-23T01:49:07.433Z,14.70
2018-06-23T01:49:41.097Z,14.60
2018-06-23T01:50:14.725Z,14.60
2018-06-23T01:50:49.515Z,14.60
2018-06-23T01:51:23.149Z,14.50
2018-06-23T01:51:56.680Z,14.50
2018-06-23T01:52:30.176Z,14.50
2018-06-23T01:53:04.304Z,14.50
2018-06-23T01:53:37.880Z,14.50
2018-06-23T01:54:11.420Z,14.50
2018-06-23T01:54:44.978Z,14.50
2018-06-23T01:55:18.586Z,14.50
2018-06-23T01:55:52.183Z,14.50
2018-06-23T01:56:59.904Z,14.50
2018-06-23T01:57:33.515Z,14.50
2018-06-23T01:58:07.659Z,14.50
2018-06-23T01:58:41.270Z,14.50
2018-06-23T01:59:14.914Z,14.50
2018-06-23T01:59:48.467Z,14.50
2018-06-23T02:00:21.996Z,14.50
2018-06-23T02:00:55.574Z,14.50
2018-06-23T02:01:29.201Z,14.50
2018-06-23T02:02:02.779Z,14.40
2018-06-23T02:02:36.988Z,14.40
2018-06-23T02:03:10.498Z,14.40
2018-06-23T02:03:44.500Z,14.50
2018-06-23T02:04:18.656Z,14.50
2018-06-23T02:04:52.176Z,14.40
2018-06-23T02:05:25.677Z,14.40
2018-06-23T02:05:59.271Z,14.40
2018-06-23T02:06:34.038Z,14.40
2018-06-23T02:07:08.919Z,14.40
2018-06-23T02:07:42.573Z,14.30
2018-06-23T02:08:16.096Z,14.30
2018-06-23T02:08:50.289Z,14.30
2018-06-23T02:09:23.876Z,14.30
2018-06-23T02:09:57.538Z,14.30
2018-06-23T02:10:31.619Z,14.30
2018-06-23T02:11:05.295Z,14.30
2018-06-23T02:11:38.888Z,14.40
2018-06-23T02:12:12.411Z,14.40
2018-06-23T02:12:46.086Z,14.40
2018-06-23T02:13:20.337Z,14.40
2018-06-23T02:13:59.186Z,14.40
2018-06-23T02:14:38.060Z,14.40
2018-06-23T02:15:12.082Z,14.40
2018-06-23T02:17:56.125Z,14.40
2018-06-23T02:18:34.961Z,14.40
2018-06-23T02:19:13.781Z,14.30
2018-06-23T02:19:53.114Z,14.30
2018-06-23T02:20:31.816Z,14.20
2018-06-23T02:21:11.363Z,14.20
2018-06-23T02:21:50.144Z,14.20
2018-06-23T02:24:32.479Z,14.20
2018-06-23T02:25:11.293Z,14.20
2018-06-23T02:25:50.043Z,14.20
2018-06-23T02:26:28.942Z,14.10
2018-06-23T02:27:07.589Z,14.10
2018-06-23T02:27:46.359Z,14.10
2018-06-23T02:31:11.475Z,14.10
2018-06-23T02:31:50.344Z,14.10
2018-06-23T02:32:29.085Z,14.00
2018-06-23T02:33:07.895Z,14.00
2018-06-23T02:33:46.691Z,14.00
2018-06-23T02:34:25.644Z,14.00
2018-06-23T02:35:33.494Z,14.10
2018-06-23T02:36:07.040Z,14.00
2018-06-23T02:36:40.668Z,14.10
2018-06-23T02:37:14.265Z,14.10
2018-06-23T02:37:47.867Z,14.10
2018-06-23T02:38:21.489Z,14.10
2018-06-23T02:38:55.060Z,14.10
2018-06-23T02:39:28.700Z,14.10
2018-06-23T02:40:04.016Z,14.20
2018-06-23T02:40:37.626Z,14.20
2018-06-23T02:41:11.365Z,14.20
2018-06-23T02:41:45.769Z,14.20
2018-06-23T02:42:21.095Z,14.20
2018-06-23T02:42:56.249Z,14.20
2018-06-23T02:43:29.819Z,14.30
2018-06-23T02:44:04.314Z,14.30
2018-06-23T02:44:38.691Z,14.30
2018-06-23T02:45:13.463Z,14.20
2018-06-23T02:45:47.025Z,14.30
2018-06-23T02:46:20.622Z,14.30
2018-06-23T02:46:55.362Z,14.30
2018-06-23T02:47:29.824Z,14.30
2018-06-23T02:48:04.020Z,14.30
2018-06-23T02:48:37.634Z,14.30
2018-06-23T02:49:11.175Z,14.30
2018-06-23T02:49:44.974Z,14.30
2018-06-23T02:50:18.524Z,14.30
2018-06-23T02:50:52.116Z,14.20
2018-06-23T02:51:25.835Z,14.20
2018-06-23T02:51:59.419Z,14.20
2018-06-23T02:52:33.080Z,14.20
2018-06-23T02:53:07.533Z,14.20
2018-06-23T02:53:41.049Z,14.20
2018-06-23T02:54:15.388Z,14.30
2018-06-23T02:54:48.969Z,14.30
2018-06-23T02:55:23.300Z,14.30
2018-06-23T02:55:57.003Z,14.30
2018-06-23T02:56:30.497Z,14.30
2018-06-23T02:57:04.597Z,14.30
2018-06-23T02:57:38.172Z,14.20
2018-06-23T02:58:12.324Z,14.20
2018-06-23T02:58:45.912Z,14.20
2018-06-23T02:59:20.093Z,14.20
2018-06-23T02:59:53.657Z,14.20
2018-06-23T03:00:27.249Z,14.20
2018-06-23T03:01:35.247Z,14.10
2018-06-23T03:02:10.211Z,14.10
2018-06-23T03:02:43.857Z,14.10
2018-06-23T03:03:17.440Z,14.10
2018-06-23T03:04:25.165Z,14.10
2018-06-23T03:04:58.714Z,14.10
2018-06-23T03:05:33.545Z,14.20
2018-06-23T03:06:07.776Z,14.20
2018-06-23T03:06:41.849Z,14.20
2018-06-23T03:07:15.649Z,14.20
2018-06-23T03:07:49.750Z,14.20
2018-06-23T03:08:23.308Z,14.20
2018-06-23T03:08:56.966Z,14.10
2018-06-23T03:09:30.517Z,14.10
2018-06-23T03:10:04.096Z,14.10
2018-06-23T03:10:38.696Z,14.10
2018-06-23T03:11:12.268Z,14.10
2018-06-23T03:11:46.356Z,14.10
2018-06-23T03:12:19.948Z,14.10
2018-06-23T03:12:53.427Z,14.10
2018-06-23T03:13:27.045Z,14.10
2018-06-23T03:14:00.609Z,14.10
2018-06-23T03:14:34.208Z,14.10
2018-06-23T03:15:40.989Z,14.10
2018-06-23T03:16:14.600Z,14.10
2018-06-23T03:16:48.155Z,14.10
2018-06-23T03:17:21.688Z,14.10
2018-06-23T03:17:55.604Z,14.10
2018-06-23T03:18:29.965Z,14.10
2018-06-23T03:19:03.628Z,14.10
2018-06-23T03:20:11.380Z,14.10
2018-06-23T03:20:44.905Z,14.10
2018-06-23T03:21:19.069Z,14.10
2018-06-23T03:21:52.614Z,14.10
2018-06-23T03:22:26.209Z,14.10
2018-06-23T03:23:00.422Z,14.10
2018-06-23T03:23:34.000Z,14.10
2018-06-23T03:24:07.586Z,14.10
2018-06-23T03:24:42.149Z,14.10
2018-06-23T03:25:15.724Z,14.10
2018-06-23T03:25:49.915Z,14.10
2018-06-23T03:26:24.723Z,14.00
2018-06-23T03:26:58.261Z,14.00
2018-06-23T03:27:31.834Z,14.00
2018-06-23T03:28:06.028Z,14.00
2018-06-23T03:28:39.661Z,14.00
2018-06-23T03:29:13.232Z,14.00
2018-06-23T03:29:47.357Z,14.00
2018-06-23T03:30:21.026Z,14.00
2018-06-23T03:30:54.560Z,14.00
2018-06-23T03:31:28.161Z,14.00
2018-06-23T03:32:01.729Z,14.10
2018-06-23T03:32:35.239Z,14.00
2018-06-23T03:33:08.819Z,14.10
2018-06-23T03:33:42.438Z,14.10
2018-06-23T03:34:15.984Z,14.10
2018-06-23T03:34:49.538Z,14.10
2018-06-23T03:35:23.089Z,14.10
2018-06-23T03:35:56.643Z,14.10
2018-06-23T03:36:30.232Z,14.10
2018-06-23T03:37:03.774Z,14.10
2018-06-23T03:37:37.395Z,14.10
2018-06-23T03:38:11.049Z,14.10
2018-06-23T03:38:45.186Z,14.10
2018-06-23T03:39:18.770Z,14.10
2018-06-23T03:39:52.444Z,14.10
2018-06-23T03:40:26.131Z,14.10
2018-06-23T03:41:00.994Z,14.10
2018-06-23T03:41:34.549Z,14.00
2018-06-23T03:42:08.191Z,14.00
2018-06-23T03:43:15.052Z,14.00
2018-06-23T03:43:49.375Z,14.00
2018-06-23T03:44:23.025Z,14.00
2018-06-23T03:44:56.614Z,14.00
2018-06-23T03:45:30.235Z,14.00
2018-06-23T03:46:03.863Z,14.10
2018-06-23T03:46:37.455Z,14.00
2018-06-23T03:47:11.036Z,14.10
2018-06-23T03:47:44.599Z,14.10
2018-06-23T03:48:18.218Z,14.10
2018-06-23T03:48:51.767Z,14.10
2018-06-23T03:49:25.377Z,14.10
2018-06-23T03:49:59.050Z,14.10
2018-06-23T03:50:32.674Z,14.00
2018-06-23T03:51:06.429Z,14.00
2018-06-23T03:51:40.045Z,14.00
2018-06-23T03:52:13.628Z,14.10
2018-06-23T03:52:47.176Z,14.10
2018-06-23T03:53:21.336Z,14.10
2018-06-23T03:53:54.952Z,14.10
2018-06-23T03:54:29.775Z,14.10
2018-06-23T03:55:03.352Z,14.10
2018-06-23T03:55:36.991Z,14.10
2018-06-23T03:56:11.098Z,14.10
2018-06-23T03:56:44.700Z,14.10
2018-06-23T03:57:18.289Z,14.10
2018-06-23T03:57:52.583Z,14.00
2018-06-23T03:58:27.319Z,14.10
2018-06-23T03:59:00.885Z,14.00
2018-06-23T03:59:34.482Z,14.00
2018-06-23T04:00:07.995Z,14.00
2018-06-23T04:00:46.840Z,14.00
2018-06-23T04:01:20.378Z,14.00
2018-06-23T04:01:54.263Z,13.90
2018-06-23T04:02:27.817Z,13.90
2018-06-23T04:03:01.896Z,13.90
2018-06-23T04:03:35.713Z,13.90
2018-06-23T04:04:09.307Z,13.80
2018-06-23T04:04:43.532Z,13.80
2018-06-23T04:05:17.100Z,13.80
2018-06-23T04:05:50.662Z,13.80
2018-06-23T04:06:24.217Z,13.80
2018-06-23T04:06:57.772Z,13.80
2018-06-23T04:07:31.321Z,13.80
2018-06-23T04:08:38.571Z,13.80
2018-06-23T04:09:12.606Z,13.80
2018-06-23T04:09:46.159Z,13.80
2018-06-23T04:10:19.717Z,13.80
2018-06-23T04:10:53.307Z,13.90
2018-06-23T04:11:27.357Z,13.80
2018-06-23T04:12:00.944Z,13.90
2018-06-23T04:12:34.490Z,13.90
2018-06-23T04:13:08.056Z,13.90
2018-06-23T04:13:41.605Z,13.90
2018-06-23T04:14:15.877Z,13.90
2018-06-23T04:14:49.943Z,13.90
2018-06-23T04:15:23.864Z,13.90
2018-06-23T04:15:57.437Z,13.90
2018-06-23T04:16:31.030Z,13.90
2018-06-23T04:17:04.620Z,13.90
2018-06-23T04:17:38.862Z,13.90
2018-06-23T04:18:12.399Z,13.90
2018-06-23T04:18:53.054Z,13.90
2018-06-23T04:19:26.604Z,14.00
2018-06-23T04:20:00.165Z,14.00
2018-06-23T04:20:34.302Z,13.90
2018-06-23T04:21:07.916Z,14.00
2018-06-23T04:21:42.609Z,13.90
2018-06-23T04:22:16.654Z,13.90
2018-06-23T04:22:50.878Z,13.90
2018-06-23T04:23:24.568Z,13.90
2018-06-23T04:24:33.087Z,13.90
2018-06-23T04:25:06.707Z,13.90
2018-06-23T04:25:40.259Z,13.90
2018-06-23T04:26:13.769Z,13.90
2018-06-23T04:26:47.932Z,14.00
2018-06-23T04:27:21.677Z,14.00
2018-06-23T04:27:55.432Z,13.90
2018-06-23T04:28:29.672Z,13.90
2018-06-23T04:29:03.319Z,13.90
2018-06-23T04:29:36.842Z,13.90
2018-06-23T04:30:10.045Z,13.90
2018-06-23T04:30:43.656Z,13.90
2018-06-23T04:31:17.231Z,13.90
2018-06-23T04:31:50.796Z,13.90
2018-06-23T04:32:24.336Z,13.90
2018-06-23T04:33:31.104Z,13.90
2018-06-23T04:34:04.719Z,13.90
2018-06-23T04:34:38.756Z,13.90
2018-06-23T04:35:12.336Z,14.00
2018-06-23T04:35:46.575Z,13.90
2018-06-23T04:36:20.268Z,14.00
2018-06-23T04:36:53.773Z,14.00
2018-06-23T04:37:27.326Z,14.00
2018-06-23T04:38:00.919Z,14.00
2018-06-23T04:38:35.171Z,14.00
2018-06-23T04:39:08.872Z,14.00
2018-06-23T04:39:42.649Z,14.00
2018-06-23T04:40:17.124Z,14.00
2018-06-23T04:40:51.098Z,14.00
2018-06-23T04:41:24.748Z,14.00
2018-06-23T04:41:58.279Z,14.00
2018-06-23T04:42:32.535Z,14.00
2018-06-23T04:43:06.156Z,14.10
2018-06-23T04:43:39.727Z,14.00
2018-06-23T04:44:13.346Z,14.00
2018-06-23T04:44:46.938Z,14.00
2018-06-23T04:45:20.472Z,14.10
2018-06-23T04:45:54.303Z,14.00
2018-06-23T04:46:27.879Z,14.10
2018-06-23T04:47:01.460Z,14.00
2018-06-23T04:47:35.028Z,14.10
2018-06-23T04:48:08.633Z,14.10
2018-06-23T04:48:42.221Z,14.10
2018-06-23T04:49:16.285Z,14.10
2018-06-23T04:49:50.793Z,14.10
2018-06-23T04:50:24.299Z,14.10
2018-06-23T04:50:57.903Z,14.10
2018-06-23T04:51:31.743Z,14.10
2018-06-23T04:52:38.537Z,14.10
2018-06-23T04:53:12.151Z,14.10
2018-06-23T04:53:47.892Z,14.10
2018-06-23T04:54:21.447Z,14.10
2018-06-23T04:54:55.625Z,14.10
2018-06-23T04:55:30.345Z,14.10
2018-06-23T04:56:04.488Z,14.10
2018-06-23T04:56:38.076Z,14.20
2018-06-23T04:57:11.631Z,14.20
2018-06-23T04:57:45.166Z,14.20
2018-06-23T04:58:18.791Z,14.20
2018-06-23T04:58:52.351Z,14.20
2018-06-23T04:59:25.951Z,14.20
2018-06-23T04:59:59.503Z,14.20
2018-06-23T05:00:33.062Z,14.20
2018-06-23T05:01:07.243Z,14.20
2018-06-23T05:01:40.819Z,14.20
2018-06-23T05:02:14.355Z,14.20
2018-06-23T05:02:47.979Z,14.20
2018-06-23T05:03:21.571Z,14.20
2018-06-23T05:03:55.558Z,14.20
2018-06-23T05:04:29.152Z,14.20
2018-06-23T05:05:02.727Z,14.20
2018-06-23T05:05:36.434Z,14.30
2018-06-23T05:06:10.015Z,14.20
2018-06-23T05:07:50.017Z,14.20
2018-06-23T05:08:23.588Z,14.20
2018-06-23T05:08:57.160Z,14.20
2018-06-23T05:09:30.885Z,14.30
2018-06-23T05:10:04.428Z,14.30
2018-06-23T05:11:11.303Z,14.20
2018-06-23T05:11:44.960Z,14.30
2018-06-23T05:12:19.186Z,14.30
2018-06-23T05:12:53.290Z,14.30
2018-06-23T05:13:26.881Z,14.30
2018-06-23T05:14:33.657Z,14.30
2018-06-23T05:15:07.227Z,14.30
2018-06-23T05:15:41.550Z,14.30
2018-06-23T05:16:15.112Z,14.30
2018-06-23T05:16:48.725Z,14.30
2018-06-23T05:17:22.311Z,14.30
2018-06-23T05:17:55.915Z,14.30
2018-06-23T05:18:29.684Z,14.30
2018-06-23T05:19:03.224Z,14.30
2018-06-23T05:19:36.750Z,14.30
2018-06-23T05:20:11.501Z,14.30
2018-06-23T05:20:45.283Z,14.30
2018-06-23T05:21:19.218Z,14.30
2018-06-23T05:21:52.739Z,14.30
2018-06-23T05:22:26.360Z,14.30
2018-06-23T05:22:59.957Z,14.30
2018-06-23T05:23:33.510Z,14.30
2018-06-23T05:24:07.145Z,14.30
2018-06-23T05:24:41.179Z,14.30
2018-06-23T05:25:48.242Z,14.30
2018-06-23T05:26:22.430Z,14.30
2018-06-23T05:26:56.250Z,14.30
2018-06-23T05:27:29.817Z,14.40
2018-06-23T05:28:03.416Z,14.30
2018-06-23T05:28:36.943Z,14.40
2018-06-23T05:29:10.555Z,14.40
2018-06-23T05:29:44.175Z,14.40
2018-06-23T05:30:17.774Z,14.40
2018-06-23T05:30:51.980Z,14.40
2018-06-23T05:32:00.160Z,14.40
2018-06-23T05:32:33.707Z,14.40
2018-06-23T05:33:07.304Z,14.50
2018-06-23T05:33:40.848Z,14.50
2018-06-23T05:34:14.396Z,14.50
2018-06-23T05:34:47.940Z,14.50
2018-06-23T05:35:21.836Z,14.50
2018-06-23T05:35:56.124Z,14.50
2018-06-23T05:36:29.707Z,14.50
2018-06-23T05:37:04.000Z,14.50
2018-06-23T05:38:10.770Z,14.50
2018-06-23T05:38:44.340Z,14.50
2018-06-23T05:39:17.900Z,14.50
2018-06-23T05:39:51.484Z,14.40
2018-06-23T05:40:25.113Z,14.40
2018-06-23T05:40:58.710Z,14.40
2018-06-23T05:42:06.346Z,14.40
2018-06-23T05:42:39.950Z,14.40
2018-06-23T05:43:14.089Z,14.40
2018-06-23T05:43:47.648Z,14.40
2018-06-23T05:44:21.799Z,14.40
2018-06-23T05:44:55.393Z,14.50
2018-06-23T05:45:28.964Z,14.40
2018-06-23T05:46:02.458Z,14.50
2018-06-23T05:46:36.779Z,14.50
2018-06-23T05:47:10.362Z,14.50
2018-06-23T05:47:43.963Z,14.50
2018-06-23T05:48:17.580Z,14.50
2018-06-23T05:48:51.822Z,14.50
2018-06-23T05:49:25.406Z,14.50
2018-06-23T05:49:58.935Z,14.50
2018-06-23T05:50:32.517Z,14.50
2018-06-23T05:51:06.092Z,14.50
2018-06-23T05:51:39.635Z,14.50
2018-06-23T05:52:13.220Z,14.50
2018-06-23T05:52:46.775Z,14.50
2018-06-23T05:53:21.073Z,14.50
2018-06-23T05:53:54.688Z,14.50
2018-06-23T05:54:28.232Z,14.50
2018-06-23T05:55:01.832Z,14.50
2018-06-23T05:55:35.521Z,14.50
2018-06-23T05:56:09.160Z,14.50
2018-06-23T05:56:42.730Z,14.50
2018-06-23T05:57:16.290Z,14.60
2018-06-23T05:57:50.478Z,14.50
2018-06-23T05:58:24.072Z,14.60
2018-06-23T05:58:57.847Z,14.60
2018-06-23T05:59:31.386Z,14.60
2018-06-23T06:00:05.135Z,14.50
2018-06-23T06:00:39.122Z,14.60
2018-06-23T06:01:13.679Z,14.60
2018-06-23T06:01:47.243Z,14.60
2018-06-23T06:02:21.516Z,14.60
2018-06-23T06:02:55.128Z,14.60
2018-06-23T06:03:28.689Z,14.50
2018-06-23T06:04:02.299Z,14.60
2018-06-23T06:04:35.827Z,14.60
2018-06-23T06:05:09.858Z,14.50
2018-06-23T06:05:43.439Z,14.60
2018-06-23T06:06:17.013Z,14.60
2018-06-23T06:06:50.567Z,14.50
2018-06-23T06:07:24.226Z,14.50
2018-06-23T06:07:57.810Z,14.50
2018-06-23T06:08:31.428Z,14.50
2018-06-23T06:09:07.295Z,14.60
2018-06-23T06:09:40.834Z,14.50
2018-06-23T06:10:14.433Z,14.60
2018-06-23T06:10:47.934Z,14.60
2018-06-23T06:11:22.248Z,14.50
2018-06-23T06:11:56.502Z,14.60
2018-06-23T06:12:30.037Z,14.60
2018-06-23T06:13:03.654Z,14.60
2018-06-23T06:13:37.185Z,14.60
2018-06-23T06:14:11.483Z,14.60
2018-06-23T06:14:45.040Z,14.60
2018-06-23T06:15:18.572Z,14.60
2018-06-23T06:15:52.164Z,14.60
2018-06-23T06:17:35.080Z,14.60
2018-06-23T06:18:08.671Z,14.60
2018-06-23T06:18:42.952Z,14.60
2018-06-23T06:19:16.520Z,14.60
2018-06-23T06:19:51.463Z,14.60
2018-06-23T06:20:25.115Z,14.60
2018-06-23T06:20:58.702Z,14.60
2018-06-23T06:21:32.267Z,14.60
2018-06-23T06:22:05.867Z,14.60
2018-06-23T06:23:14.541Z,14.60
2018-06-23T06:23:48.116Z,14.60
2018-06-23T06:24:21.696Z,14.60
2018-06-23T06:24:55.675Z,14.60
2018-06-23T06:25:29.275Z,14.60
2018-06-23T06:26:03.687Z,14.60
2018-06-23T06:26:37.256Z,14.60
2018-06-23T06:27:10.761Z,14.60
2018-06-23T06:27:44.327Z,14.60
2018-06-23T06:28:17.936Z,14.70
2018-06-23T06:28:52.201Z,14.70
2018-06-23T06:29:25.966Z,14.60
2018-06-23T06:29:59.837Z,14.70
2018-06-23T06:30:33.411Z,14.70
2018-06-23T06:31:08.315Z,14.70
2018-06-23T06:31:41.898Z,14.70
2018-06-23T06:32:15.492Z,14.70
2018-06-23T06:32:49.038Z,14.70
2018-06-23T06:33:23.083Z,14.70
2018-06-23T06:33:56.837Z,14.70
2018-06-23T06:34:30.434Z,14.70
2018-06-23T06:35:04.304Z,14.70
2018-06-23T06:35:37.881Z,14.70
2018-06-23T06:36:11.599Z,14.80
2018-06-23T06:37:18.440Z,14.70
2018-06-23T06:37:52.024Z,14.70
2018-06-23T06:38:25.631Z,14.80
2018-06-23T06:39:00.008Z,14.80
2018-06-23T06:39:33.643Z,14.70
2018-06-23T06:40:07.951Z,14.70
2018-06-23T06:40:41.476Z,14.70
2018-06-23T06:41:15.043Z,14.70
2018-06-23T06:41:48.655Z,14.70
2018-06-23T06:42:22.270Z,14.70
2018-06-23T06:42:55.824Z,14.70
2018-06-23T06:43:29.373Z,14.70
2018-06-23T06:44:02.954Z,14.70
2018-06-23T06:44:37.268Z,14.70
2018-06-23T06:45:10.908Z,14.70
2018-06-23T06:45:45.837Z,14.70
2018-06-23T06:46:21.945Z,14.70
2018-06-23T06:46:56.053Z,14.70
2018-06-23T06:47:29.610Z,14.70
2018-06-23T06:48:03.478Z,14.70
2018-06-23T06:48:37.016Z,14.70
2018-06-23T06:49:10.576Z,14.70
2018-06-23T06:49:44.206Z,14.70
2018-06-23T06:50:17.872Z,14.70
2018-06-23T06:50:51.489Z,14.70
2018-06-23T06:51:25.083Z,14.70
2018-06-23T06:51:58.649Z,14.70
2018-06-23T06:52:32.854Z,14.70
2018-06-23T06:53:06.399Z,14.60
2018-06-23T06:53:40.036Z,14.60
2018-06-23T06:54:13.658Z,14.60
2018-06-23T06:54:47.276Z,14.60
2018-06-23T06:55:20.911Z,14.60
2018-06-23T06:55:54.552Z,14.60
2018-06-23T06:56:28.171Z,14.60
2018-06-23T06:57:02.487Z,14.60
2018-06-23T06:57:36.167Z,14.60
2018-06-23T06:58:10.326Z,14.60
2018-06-23T06:58:44.349Z,14.60
2018-06-23T06:59:18.376Z,14.60
2018-06-23T06:59:52.000Z,14.60
2018-06-23T07:00:25.652Z,14.60
2018-06-23T07:01:34.209Z,14.50
2018-06-23T07:02:08.009Z,14.50
2018-06-23T07:02:41.567Z,14.50
2018-06-23T07:03:15.221Z,14.50
2018-06-23T07:03:49.271Z,14.50
2018-06-23T07:04:23.525Z,14.50
2018-06-23T07:04:58.556Z,14.50
2018-06-23T07:05:32.207Z,14.60
2018-06-23T07:06:05.947Z,14.50
2018-06-23T07:06:39.542Z,14.60
2018-06-23T07:07:13.587Z,14.60
2018-06-23T07:07:47.161Z,14.50
2018-06-23T07:08:21.350Z,14.60
2018-06-23T07:08:54.974Z,14.50
2018-06-23T07:09:28.539Z,14.60
2018-06-23T07:10:02.129Z,14.60
2018-06-23T07:10:35.712Z,14.60
2018-06-23T07:11:09.303Z,14.60
2018-06-23T07:11:43.804Z,14.60
2018-06-23T07:12:17.350Z,14.60
2018-06-23T07:12:50.932Z,14.60
2018-06-23T07:13:24.510Z,14.70
2018-06-23T07:13:59.355Z,14.70
2018-06-23T07:14:33.474Z,14.70
2018-06-23T07:15:13.836Z,14.70
2018-06-23T07:15:47.388Z,14.80
2018-06-23T07:16:20.943Z,14.80
2018-06-23T07:16:55.079Z,14.80
2018-06-23T07:17:28.628Z,14.90
2018-06-23T07:18:02.183Z,14.90
2018-06-23T07:18:36.012Z,14.90
2018-06-23T07:19:09.680Z,14.90
2018-06-23T07:19:43.310Z,15.00
2018-06-23T07:20:17.387Z,15.00
2018-06-23T07:20:50.911Z,15.00
2018-06-23T07:21:24.480Z,15.10
2018-06-23T07:21:58.072Z,15.10
2018-06-23T07:22:31.713Z,15.10
2018-06-23T07:23:05.374Z,15.10
2018-06-23T07:23:39.022Z,15.10
2018-06-23T07:24:12.588Z,15.20
2018-06-23T07:24:46.120Z,15.20
2018-06-23T07:25:19.698Z,15.20
2018-06-23T07:25:53.244Z,15.20
2018-06-23T07:26:26.849Z,15.20
2018-06-23T07:27:00.507Z,15.30
2018-06-23T07:27:33.958Z,15.30
2018-06-23T07:28:08.292Z,15.30
2018-06-23T07:28:41.901Z,15.40
2018-06-23T07:29:16.199Z,15.40
2018-06-23T07:29:49.779Z,15.40
2018-06-23T07:30:23.383Z,15.50
2018-06-23T07:30:56.965Z,15.50
2018-06-23T07:31:30.550Z,15.50
2018-06-23T07:32:04.546Z,15.50
2018-06-23T07:32:38.610Z,15.50
2018-06-23T07:33:12.367Z,15.60
2018-06-23T07:33:46.080Z,15.60
2018-06-23T07:34:19.722Z,15.60
2018-06-23T07:34:53.392Z,15.60
2018-06-23T07:35:26.890Z,15.60
2018-06-23T07:36:00.482Z,15.70
2018-06-23T07:36:34.083Z,15.70
2018-06-23T07:37:07.680Z,15.70
2018-06-23T07:37:41.312Z,15.70
2018-06-23T07:38:15.049Z,15.70
2018-06-23T07:38:48.607Z,15.70
2018-06-23T07:39:22.151Z,15.70
2018-06-23T07:39:55.699Z,15.80
2018-06-23T07:40:29.245Z,15.80